Terminal Aerodrome Forecast
Issued by NWS

Home | Current Version | Previous Version | Text Only | Print | Product List | Glossary On
Versions: 1 2 3 4 5 6 7 8 9 10 11 12 13 14 15 16 17 18 19 20
000
FTUS41 KBTV 231700
TAFSLK
TAF
KSLK 231729Z 2318/2418 25008KT 4SM -DZ BR BKN008 OVC020
     FM232000 26008KT P6SM BKN025
     FM240000 00000KT P6SM SKC
     FM240700 00000KT 1/2SM FG SKC
     FM241330 20004KT P6SM FEW045=

USA.gov is the U.S. government's official web portal to all federal, state and local government web resources and services.